createdAt,value
2023-03-17T00:01:13.522Z,18.00
2023-03-17T00:11:29.550Z,39.80
2023-03-17T00:16:37.770Z,47.30
2023-03-17T00:21:39.963Z,46.80
2023-03-17T00:26:42.958Z,39.10
2023-03-17T00:31:45.457Z,38.70
2023-03-17T00:36:50.157Z,41.50
2023-03-17T00:41:52.168Z,37.20
2023-03-17T00:46:54.859Z,36.20
2023-03-17T00:51:56.749Z,35.30
2023-03-17T00:56:58.515Z,36.30
2023-03-17T01:02:01.526Z,33.00
2023-03-17T01:12:10.183Z,28.70
2023-03-17T01:17:17.999Z,26.30
2023-03-17T01:22:19.981Z,24.40
2023-03-17T01:27:21.871Z,26.50
2023-03-17T01:32:23.733Z,26.20
2023-03-17T01:37:26.636Z,28.40
2023-03-17T01:42:29.131Z,27.60
2023-03-17T01:47:31.738Z,25.60
2023-03-17T01:52:38.018Z,24.30
2023-03-17T01:57:56.058Z,22.30
2023-03-17T02:02:58.652Z,18.90
2023-03-17T02:08:00.458Z,21.30
2023-03-17T02:13:05.180Z,20.30
2023-03-17T02:18:08.631Z,18.60
2023-03-17T02:23:11.378Z,16.80
2023-03-17T02:28:18.453Z,15.80
2023-03-17T02:33:20.659Z,16.10
2023-03-17T02:38:22.555Z,18.80
2023-03-17T02:43:24.526Z,25.10
2023-03-17T02:48:26.811Z,28.20
2023-03-17T02:53:28.582Z,25.50
2023-03-17T02:58:30.462Z,16.50
2023-03-17T03:03:32.646Z,18.00
2023-03-17T03:08:35.344Z,19.20
2023-03-17T03:13:37.423Z,13.70
2023-03-17T03:18:39.606Z,17.30
2023-03-17T03:23:41.538Z,17.40
2023-03-17T03:28:43.667Z,14.70
2023-03-17T03:33:45.749Z,17.50
2023-03-17T03:38:47.623Z,16.20
2023-03-17T03:43:50.010Z,19.40
2023-03-17T03:48:52.092Z,16.10
2023-03-17T03:53:54.069Z,15.10
2023-03-17T03:58:56.769Z,15.50
2023-03-17T04:03:59.051Z,16.60
2023-03-17T04:09:00.831Z,16.70
2023-03-17T04:14:02.816Z,16.90
2023-03-17T04:19:04.538Z,16.30
2023-03-17T04:24:07.479Z,18.10
2023-03-17T04:29:15.087Z,18.40
2023-03-17T04:34:18.195Z,19.80
2023-03-17T04:39:20.486Z,19.00
2023-03-17T04:44:22.578Z,18.10
2023-03-17T04:49:24.545Z,18.60
2023-03-17T04:54:26.315Z,18.50
2023-03-17T04:59:28.088Z,19.40
2023-03-17T05:04:31.948Z,27.70
2023-03-17T05:09:34.407Z,26.60
2023-03-17T05:14:37.414Z,25.40
2023-03-17T05:19:39.287Z,27.70
2023-03-17T05:24:41.164Z,20.70
2023-03-17T05:29:43.067Z,22.70
2023-03-17T05:34:45.940Z,24.90
2023-03-17T05:39:47.710Z,31.70
2023-03-17T05:44:49.764Z,41.40
2023-03-17T05:49:52.286Z,54.30
2023-03-17T05:54:54.877Z,35.00
2023-03-17T05:59:56.959Z,25.80
2023-03-17T06:04:58.735Z,32.50
2023-03-17T06:10:01.738Z,29.80
2023-03-17T06:15:05.884Z,25.90
2023-03-17T06:20:09.284Z,29.50
2023-03-17T06:25:11.679Z,24.50
2023-03-17T06:30:14.571Z,25.70
2023-03-17T06:35:17.579Z,25.10
2023-03-17T06:40:20.066Z,22.50
2023-03-17T06:45:21.858Z,24.20
2023-03-17T06:50:24.437Z,22.40
2023-03-17T06:55:27.134Z,20.20
2023-03-17T07:00:30.029Z,21.90
2023-03-17T07:05:34.363Z,25.60
2023-03-17T07:10:36.551Z,21.90
2023-03-17T07:15:38.540Z,21.00
2023-03-17T07:20:41.126Z,24.30
2023-03-17T07:25:44.427Z,22.20
2023-03-17T07:30:48.047Z,22.70
2023-03-17T07:35:51.906Z,16.60
2023-03-17T07:40:54.666Z,14.60
2023-03-17T07:45:57.813Z,13.80
2023-03-17T07:51:00.168Z,14.20
2023-03-17T07:56:02.051Z,13.80
2023-03-17T08:01:04.940Z,13.50
2023-03-17T08:06:08.179Z,12.90
2023-03-17T08:16:12.457Z,14.20
2023-03-17T08:21:15.991Z,12.50
2023-03-17T08:26:18.786Z,13.30
2023-03-17T08:36:25.757Z,10.90
2023-03-17T08:41:28.162Z,12.10
2023-03-17T08:46:32.260Z,10.30
2023-03-17T08:51:37.038Z,9.10
2023-03-17T08:56:40.136Z,9.80
2023-03-17T09:01:43.813Z,10.00
2023-03-17T09:07:01.723Z,8.50
2023-03-17T09:12:07.078Z,10.10
2023-03-17T09:17:09.549Z,9.00
2023-03-17T09:22:16.233Z,13.80
2023-03-17T09:27:18.108Z,18.10
2023-03-17T09:32:19.983Z,11.20
2023-03-17T09:37:22.188Z,10.50
2023-03-17T09:43:15.249Z,17.50
2023-03-17T09:48:39.142Z,10.10
2023-03-17T09:54:10.304Z,9.00
2023-03-17T09:59:35.530Z,8.70
2023-03-17T10:04:37.927Z,8.30
2023-03-17T10:09:51.160Z,8.90
2023-03-17T10:15:16.016Z,28.60
2023-03-17T10:20:27.071Z,10.10
2023-03-17T10:25:32.278Z,8.70
2023-03-17T10:30:35.012Z,7.30
2023-03-17T10:35:38.857Z,7.50
2023-03-17T10:40:41.535Z,9.00
2023-03-17T10:50:58.611Z,9.10
2023-03-17T10:56:20.034Z,9.00
2023-03-17T11:01:34.269Z,8.00
2023-03-17T11:06:43.758Z,7.60
2023-03-17T11:12:01.080Z,7.70
2023-03-17T11:17:20.790Z,8.40
2023-03-17T11:22:40.191Z,10.60
2023-03-17T11:27:57.420Z,6.40
2023-03-17T11:33:09.621Z,5.30
2023-03-17T11:38:11.826Z,5.50
2023-03-17T11:43:33.254Z,5.70
2023-03-17T11:48:38.518Z,5.40
2023-03-17T11:53:43.972Z,6.20
2023-03-17T11:58:59.980Z,6.00
2023-03-17T12:04:04.735Z,6.20
2023-03-17T12:09:38.133Z,8.20
2023-03-17T12:14:42.573Z,5.60
2023-03-17T12:20:16.924Z,6.00
2023-03-17T12:25:27.719Z,7.80
2023-03-17T12:30:32.860Z,5.90
2023-03-17T12:35:38.824Z,6.80
2023-03-17T12:41:21.506Z,12.40
2023-03-17T12:46:51.622Z,9.10
2023-03-17T12:52:17.127Z,13.80
2023-03-17T12:57:21.041Z,8.10
2023-03-17T13:02:28.765Z,6.40
2023-03-17T13:07:54.595Z,4.80
2023-03-17T13:13:08.807Z,5.90
2023-03-17T13:18:17.563Z,5.90
2023-03-17T13:23:21.835Z,6.60
2023-03-17T13:28:47.021Z,10.30
2023-03-17T13:33:53.024Z,6.80
2023-03-17T13:39:18.685Z,13.20
2023-03-17T13:44:42.759Z,9.70
2023-03-17T13:49:52.537Z,39.70
2023-03-17T13:55:17.943Z,14.70
2023-03-17T14:00:26.544Z,10.40
2023-03-17T14:05:37.487Z,7.60
2023-03-17T14:10:39.349Z,13.40
2023-03-17T14:16:06.623Z,10.10
2023-03-17T14:21:21.909Z,9.20
2023-03-17T14:26:30.758Z,11.90
2023-03-17T14:31:32.949Z,11.20
2023-03-17T14:36:35.022Z,15.40
2023-03-17T14:41:36.802Z,14.90
2023-03-17T14:46:40.742Z,13.90
2023-03-17T14:51:43.849Z,10.00
2023-03-17T14:57:01.799Z,12.00
2023-03-17T15:02:30.421Z,13.30
2023-03-17T15:07:42.697Z,11.90
2023-03-17T15:12:46.656Z,28.90
2023-03-17T15:17:54.443Z,22.20
2023-03-17T15:22:59.096Z,27.90
2023-03-17T15:28:01.063Z,18.20
2023-03-17T15:33:04.013Z,17.90
2023-03-17T15:43:16.608Z,28.70
2023-03-17T15:48:24.966Z,36.10
2023-03-17T15:53:28.062Z,29.60
2023-03-17T15:58:30.159Z,22.30
2023-03-17T16:03:37.354Z,28.50
2023-03-17T16:08:39.934Z,16.70
2023-03-17T16:13:42.216Z,19.10
2023-03-17T16:18:46.887Z,19.70
2023-03-17T16:23:49.664Z,54.20
2023-03-17T16:28:51.438Z,56.30
2023-03-17T16:33:54.765Z,36.90
2023-03-17T16:38:56.932Z,29.40
2023-03-17T16:44:01.310Z,40.90
2023-03-17T16:49:04.508Z,21.30
2023-03-17T16:54:08.401Z,17.80
2023-03-17T16:59:20.125Z,18.70
2023-03-17T17:04:23.829Z,33.60
2023-03-17T17:09:26.124Z,34.40
2023-03-17T17:14:27.993Z,30.00
2023-03-17T17:19:29.969Z,37.60
2023-03-17T17:24:32.480Z,38.60
2023-03-17T17:29:34.643Z,43.10
2023-03-17T17:34:38.791Z,19.90
2023-03-17T17:39:42.376Z,23.40
2023-03-17T17:44:44.519Z,20.90
2023-03-17T17:49:46.460Z,24.60
2023-03-17T17:54:48.443Z,20.30
2023-03-17T17:59:50.641Z,28.10
2023-03-17T18:04:53.285Z,44.40
2023-03-17T18:09:55.397Z,45.80
2023-03-17T18:14:58.014Z,28.10
2023-03-17T18:20:00.234Z,13.90
2023-03-17T18:25:09.817Z,16.40
2023-03-17T18:30:21.777Z,27.00
2023-03-17T18:35:28.558Z,24.60
2023-03-17T18:40:31.964Z,28.40
2023-03-17T18:45:34.685Z,28.40
2023-03-17T18:50:37.752Z,33.90
2023-03-17T18:55:41.371Z,31.40
2023-03-17T19:00:45.331Z,13.30
2023-03-17T19:05:47.280Z,27.40
2023-03-17T19:10:50.167Z,19.70
2023-03-17T19:15:52.152Z,26.50
2023-03-17T19:20:56.482Z,18.80
2023-03-17T19:25:59.076Z,46.40
2023-03-17T19:31:01.344Z,30.10
2023-03-17T19:36:11.216Z,17.20
2023-03-17T19:41:15.266Z,24.50
2023-03-17T19:46:17.720Z,14.40
2023-03-17T19:51:19.837Z,19.50
2023-03-17T19:56:22.994Z,20.90
2023-03-17T20:01:25.805Z,19.20
2023-03-17T20:06:28.021Z,17.70
2023-03-17T20:11:34.680Z,27.00
2023-03-17T20:16:41.343Z,24.10
2023-03-17T20:21:43.599Z,25.40
2023-03-17T20:26:48.839Z,18.10
2023-03-17T20:31:51.481Z,21.10
2023-03-17T20:36:53.416Z,24.30
2023-03-17T20:41:56.523Z,20.10
2023-03-17T20:52:01.414Z,17.40
2023-03-17T20:57:04.508Z,18.50
2023-03-17T21:02:17.007Z,35.00
2023-03-17T21:07:21.781Z,14.20
2023-03-17T21:12:24.095Z,15.40
2023-03-17T21:17:27.334Z,13.50
2023-03-17T21:22:33.084Z,18.20
2023-03-17T21:27:39.333Z,15.00
2023-03-17T21:32:41.749Z,27.30
2023-03-17T21:37:43.811Z,16.40
2023-03-17T21:42:45.804Z,14.80
2023-03-17T21:47:49.495Z,14.70
2023-03-17T21:52:52.347Z,18.10
2023-03-17T21:57:56.150Z,26.90
2023-03-17T22:03:00.306Z,21.10
2023-03-17T22:08:04.306Z,18.70
2023-03-17T22:23:15.461Z,17.90
2023-03-17T22:28:20.999Z,11.40
2023-03-17T22:33:26.703Z,17.90
2023-03-17T22:38:28.949Z,14.30
2023-03-17T22:43:31.869Z,19.80
2023-03-17T22:48:37.468Z,18.10
2023-03-17T22:53:40.433Z,16.70
2023-03-17T22:58:43.857Z,14.70
2023-03-17T23:08:48.522Z,15.80
2023-03-17T23:13:52.183Z,16.30
2023-03-17T23:18:54.425Z,15.60
2023-03-17T23:23:58.083Z,14.70
2023-03-17T23:34:06.190Z,12.20
2023-03-17T23:39:09.397Z,15.70
2023-03-17T23:44:11.697Z,12.40
2023-03-17T23:49:14.075Z,14.20
2023-03-17T23:54:16.251Z,14.80
2023-03-17T23:59:18.252Z,12.20
